sensor_id;sensor_type;location;lat;lon;timestamp;P1;durP1;ratioP1;P2;durP2;ratioP2
5813;SDS011;2933;52.302;8.134;2023-08-07T00:00:34;9.30;;;2.50;;
5813;SDS011;2933;52.302;8.134;2023-08-07T00:05:36;2.87;;;2.37;;
5813;SDS011;2933;52.302;8.134;2023-08-07T00:10:38;5.43;;;2.40;;
5813;SDS011;2933;52.302;8.134;2023-08-07T00:15:40;7.37;;;2.87;;
5813;SDS011;2933;52.302;8.134;2023-08-07T00:20:42;7.33;;;2.97;;
5813;SDS011;2933;52.302;8.134;2023-08-07T00:25:44;9.17;;;2.90;;
5813;SDS011;2933;52.302;8.134;2023-08-07T00:30:46;4.77;;;2.90;;
5813;SDS011;2933;52.302;8.134;2023-08-07T00:35:48;7.90;;;2.50;;
5813;SDS011;2933;52.302;8.134;2023-08-07T00:40:50;4.50;;;2.80;;
5813;SDS011;2933;52.302;8.134;2023-08-07T00:45:53;5.30;;;3.13;;
5813;SDS011;2933;52.302;8.134;2023-08-07T00:50:54;4.20;;;3.10;;
5813;SDS011;2933;52.302;8.134;2023-08-07T00:55:57;4.93;;;3.23;;
5813;SDS011;2933;52.302;8.134;2023-08-07T01:01:00;6.40;;;3.30;;
5813;SDS011;2933;52.302;8.134;2023-08-07T01:06:02;15.80;;;3.80;;
5813;SDS011;2933;52.302;8.134;2023-08-07T01:11:07;15.60;;;4.13;;
5813;SDS011;2933;52.302;8.134;2023-08-07T01:16:21;7.80;;;4.07;;
5813;SDS011;2933;52.302;8.134;2023-08-07T01:21:28;8.50;;;4.33;;
5813;SDS011;2933;52.302;8.134;2023-08-07T01:26:31;5.03;;;4.20;;
5813;SDS011;2933;52.302;8.134;2023-08-07T01:31:35;6.90;;;3.77;;
5813;SDS011;2933;52.302;8.134;2023-08-07T01:36:39;7.80;;;4.13;;
5813;SDS011;2933;52.302;8.134;2023-08-07T01:41:44;7.57;;;4.43;;
5813;SDS011;2933;52.302;8.134;2023-08-07T01:46:46;18.53;;;4.57;;
5813;SDS011;2933;52.302;8.134;2023-08-07T01:51:48;6.53;;;5.40;;
5813;SDS011;2933;52.302;8.134;2023-08-07T01:56:51;6.43;;;4.23;;
5813;SDS011;2933;52.302;8.134;2023-08-07T02:01:52;8.97;;;5.23;;
5813;SDS011;2933;52.302;8.134;2023-08-07T02:06:54;6.70;;;5.17;;
5813;SDS011;2933;52.302;8.134;2023-08-07T02:11:57;8.97;;;5.43;;
5813;SDS011;2933;52.302;8.134;2023-08-07T02:16:58;11.20;;;5.03;;
5813;SDS011;2933;52.302;8.134;2023-08-07T02:22:00;8.53;;;5.07;;
5813;SDS011;2933;52.302;8.134;2023-08-07T02:27:03;9.40;;;5.97;;
5813;SDS011;2933;52.302;8.134;2023-08-07T02:32:05;10.03;;;5.93;;
5813;SDS011;2933;52.302;8.134;2023-08-07T02:37:07;10.67;;;5.77;;
5813;SDS011;2933;52.302;8.134;2023-08-07T02:42:10;11.00;;;6.60;;
5813;SDS011;2933;52.302;8.134;2023-08-07T02:47:12;8.33;;;5.80;;
5813;SDS011;2933;52.302;8.134;2023-08-07T02:52:21;6.07;;;5.47;;
5813;SDS011;2933;52.302;8.134;2023-08-07T02:57:24;7.40;;;5.63;;
5813;SDS011;2933;52.302;8.134;2023-08-07T03:02:26;10.50;;;5.70;;
5813;SDS011;2933;52.302;8.134;2023-08-07T03:07:28;10.80;;;5.77;;
5813;SDS011;2933;52.302;8.134;2023-08-07T03:12:31;9.90;;;5.47;;
5813;SDS011;2933;52.302;8.134;2023-08-07T03:17:33;11.17;;;5.77;;
5813;SDS011;2933;52.302;8.134;2023-08-07T03:22:35;7.00;;;5.20;;
5813;SDS011;2933;52.302;8.134;2023-08-07T03:27:37;6.10;;;5.50;;
5813;SDS011;2933;52.302;8.134;2023-08-07T03:32:39;5.63;;;4.70;;
5813;SDS011;2933;52.302;8.134;2023-08-07T03:37:41;10.10;;;5.57;;
5813;SDS011;2933;52.302;8.134;2023-08-07T03:42:44;4.90;;;4.50;;
5813;SDS011;2933;52.302;8.134;2023-08-07T03:47:46;6.17;;;4.60;;
5813;SDS011;2933;52.302;8.134;2023-08-07T03:52:47;8.67;;;4.40;;
5813;SDS011;2933;52.302;8.134;2023-08-07T03:57:50;5.07;;;4.57;;
5813;SDS011;2933;52.302;8.134;2023-08-07T04:02:52;7.33;;;3.90;;
5813;SDS011;2933;52.302;8.134;2023-08-07T04:07:53;8.10;;;4.90;;
5813;SDS011;2933;52.302;8.134;2023-08-07T04:12:56;3.97;;;3.53;;
5813;SDS011;2933;52.302;8.134;2023-08-07T04:17:57;4.80;;;3.67;;
5813;SDS011;2933;52.302;8.134;2023-08-07T04:22:59;7.80;;;3.50;;
5813;SDS011;2933;52.302;8.134;2023-08-07T04:28:02;3.93;;;3.50;;
5813;SDS011;2933;52.302;8.134;2023-08-07T04:33:03;6.03;;;3.57;;
5813;SDS011;2933;52.302;8.134;2023-08-07T04:38:05;3.93;;;3.60;;
5813;SDS011;2933;52.302;8.134;2023-08-07T04:43:08;4.83;;;3.80;;
5813;SDS011;2933;52.302;8.134;2023-08-07T04:48:10;4.50;;;3.10;;
5813;SDS011;2933;52.302;8.134;2023-08-07T04:53:12;8.30;;;2.93;;
5813;SDS011;2933;52.302;8.134;2023-08-07T04:58:15;4.70;;;2.57;;
5813;SDS011;2933;52.302;8.134;2023-08-07T05:03:16;4.20;;;2.40;;
5813;SDS011;2933;52.302;8.134;2023-08-07T05:08:18;7.00;;;2.40;;
5813;SDS011;2933;52.302;8.134;2023-08-07T05:13:21;5.03;;;2.37;;
5813;SDS011;2933;52.302;8.134;2023-08-07T05:18:23;8.80;;;2.30;;
5813;SDS011;2933;52.302;8.134;2023-08-07T05:23:24;7.43;;;2.33;;
5813;SDS011;2933;52.302;8.134;2023-08-07T05:28:27;8.70;;;2.50;;
5813;SDS011;2933;52.302;8.134;2023-08-07T05:33:29;7.70;;;2.20;;
5813;SDS011;2933;52.302;8.134;2023-08-07T05:38:30;3.90;;;1.63;;
5813;SDS011;2933;52.302;8.134;2023-08-07T05:43:33;11.37;;;2.43;;
5813;SDS011;2933;52.302;8.134;2023-08-07T05:48:35;4.73;;;2.10;;
5813;SDS011;2933;52.302;8.134;2023-08-07T05:53:36;6.45;;;2.00;;
5813;SDS011;2933;52.302;8.134;2023-08-07T05:58:39;3.40;;;1.90;;
5813;SDS011;2933;52.302;8.134;2023-08-07T06:03:40;13.60;;;2.40;;
5813;SDS011;2933;52.302;8.134;2023-08-07T06:08:42;8.53;;;1.97;;
5813;SDS011;2933;52.302;8.134;2023-08-07T06:13:45;3.43;;;1.70;;
5813;SDS011;2933;52.302;8.134;2023-08-07T06:18:46;5.40;;;2.07;;
5813;SDS011;2933;52.302;8.134;2023-08-07T06:23:48;3.53;;;1.80;;
5813;SDS011;2933;52.302;8.134;2023-08-07T06:28:51;6.83;;;2.00;;
5813;SDS011;2933;52.302;8.134;2023-08-07T06:33:52;4.30;;;2.97;;
5813;SDS011;2933;52.302;8.134;2023-08-07T06:38:54;1.90;;;1.80;;
5813;SDS011;2933;52.302;8.134;2023-08-07T06:43:57;6.57;;;3.33;;
5813;SDS011;2933;52.302;8.134;2023-08-07T06:48:58;2.53;;;1.77;;
5813;SDS011;2933;52.302;8.134;2023-08-07T06:54:00;3.37;;;2.50;;
5813;SDS011;2933;52.302;8.134;2023-08-07T06:59:02;2.50;;;2.20;;
5813;SDS011;2933;52.302;8.134;2023-08-07T07:04:04;6.77;;;2.40;;
5813;SDS011;2933;52.302;8.134;2023-08-07T07:09:05;6.37;;;2.40;;
5813;SDS011;2933;52.302;8.134;2023-08-07T07:14:09;8.33;;;3.10;;
5813;SDS011;2933;52.302;8.134;2023-08-07T07:19:10;6.97;;;2.60;;
5813;SDS011;2933;52.302;8.134;2023-08-07T07:24:12;7.47;;;2.43;;
5813;SDS011;2933;52.302;8.134;2023-08-07T07:29:15;5.53;;;2.90;;
5813;SDS011;2933;52.302;8.134;2023-08-07T07:34:17;5.33;;;3.23;;
5813;SDS011;2933;52.302;8.134;2023-08-07T07:39:19;6.80;;;2.40;;
5813;SDS011;2933;52.302;8.134;2023-08-07T07:44:22;8.83;;;1.93;;
5813;SDS011;2933;52.302;8.134;2023-08-07T07:49:24;4.20;;;1.87;;
5813;SDS011;2933;52.302;8.134;2023-08-07T07:54:25;6.33;;;2.33;;
5813;SDS011;2933;52.302;8.134;2023-08-07T07:59:31;7.40;;;2.37;;
5813;SDS011;2933;52.302;8.134;2023-08-07T08:04:32;3.23;;;2.07;;
5813;SDS011;2933;52.302;8.134;2023-08-07T08:09:35;4.50;;;2.07;;
5813;SDS011;2933;52.302;8.134;2023-08-07T08:14:38;5.03;;;2.17;;
5813;SDS011;2933;52.302;8.134;2023-08-07T08:19:39;8.97;;;2.40;;
5813;SDS011;2933;52.302;8.134;2023-08-07T08:24:41;7.70;;;1.60;;
5813;SDS011;2933;52.302;8.134;2023-08-07T08:29:44;6.83;;;1.67;;
5813;SDS011;2933;52.302;8.134;2023-08-07T08:34:46;6.63;;;2.03;;
5813;SDS011;2933;52.302;8.134;2023-08-07T08:39:49;8.67;;;2.20;;
5813;SDS011;2933;52.302;8.134;2023-08-07T08:44:53;2.90;;;1.67;;
5813;SDS011;2933;52.302;8.134;2023-08-07T08:49:57;4.40;;;1.57;;
5813;SDS011;2933;52.302;8.134;2023-08-07T08:55:03;3.63;;;1.10;;
5813;SDS011;2933;52.302;8.134;2023-08-07T09:00:08;2.87;;;1.50;;
5813;SDS011;2933;52.302;8.134;2023-08-07T09:05:18;2.43;;;1.50;;
5813;SDS011;2933;52.302;8.134;2023-08-07T09:10:20;3.50;;;1.60;;
5813;SDS011;2933;52.302;8.134;2023-08-07T09:15:24;3.80;;;1.50;;
5813;SDS011;2933;52.302;8.134;2023-08-07T09:20:28;7.63;;;1.80;;
5813;SDS011;2933;52.302;8.134;2023-08-07T09:25:31;4.30;;;2.03;;
5813;SDS011;2933;52.302;8.134;2023-08-07T09:30:35;3.50;;;2.17;;
5813;SDS011;2933;52.302;8.134;2023-08-07T09:35:38;3.03;;;1.60;;
5813;SDS011;2933;52.302;8.134;2023-08-07T09:40:40;1.50;;;1.40;;
5813;SDS011;2933;52.302;8.134;2023-08-07T09:45:44;9.57;;;1.17;;
5813;SDS011;2933;52.302;8.134;2023-08-07T09:50:46;7.37;;;1.83;;
5813;SDS011;2933;52.302;8.134;2023-08-07T09:55:47;1.20;;;1.10;;
5813;SDS011;2933;52.302;8.134;2023-08-07T10:00:50;2.67;;;1.10;;
5813;SDS011;2933;52.302;8.134;2023-08-07T10:05:53;2.17;;;1.30;;
5813;SDS011;2933;52.302;8.134;2023-08-07T10:10:55;4.97;;;1.40;;
5813;SDS011;2933;52.302;8.134;2023-08-07T10:16:00;1.77;;;1.20;;
5813;SDS011;2933;52.302;8.134;2023-08-07T10:21:03;1.20;;;1.07;;
5813;SDS011;2933;52.302;8.134;2023-08-07T10:26:08;2.40;;;1.10;;
5813;SDS011;2933;52.302;8.134;2023-08-07T10:31:13;1.90;;;1.10;;
5813;SDS011;2933;52.302;8.134;2023-08-07T10:36:16;4.07;;;1.43;;
5813;SDS011;2933;52.302;8.134;2023-08-07T10:41:18;1.33;;;1.00;;
5813;SDS011;2933;52.302;8.134;2023-08-07T10:46:21;1.37;;;1.10;;
5813;SDS011;2933;52.302;8.134;2023-08-07T10:51:27;11.70;;;1.87;;
5813;SDS011;2933;52.302;8.134;2023-08-07T10:56:31;2.70;;;1.50;;
5813;SDS011;2933;52.302;8.134;2023-08-07T11:01:39;3.23;;;1.60;;
5813;SDS011;2933;52.302;8.134;2023-08-07T11:06:42;2.87;;;1.80;;
5813;SDS011;2933;52.302;8.134;2023-08-07T11:11:46;4.20;;;1.73;;
5813;SDS011;2933;52.302;8.134;2023-08-07T11:16:50;10.10;;;2.13;;
5813;SDS011;2933;52.302;8.134;2023-08-07T11:21:53;9.97;;;2.00;;
5813;SDS011;2933;52.302;8.134;2023-08-07T11:26:57;7.33;;;2.10;;
5813;SDS011;2933;52.302;8.134;2023-08-07T11:32:00;4.70;;;2.33;;
5813;SDS011;2933;52.302;8.134;2023-08-07T11:37:01;1.90;;;1.70;;
5813;SDS011;2933;52.302;8.134;2023-08-07T11:42:04;6.07;;;1.77;;
5813;SDS011;2933;52.302;8.134;2023-08-07T11:47:08;3.27;;;2.00;;
5813;SDS011;2933;52.302;8.134;2023-08-07T11:52:10;7.63;;;2.10;;
5813;SDS011;2933;52.302;8.134;2023-08-07T11:57:15;6.63;;;2.10;;
5813;SDS011;2933;52.302;8.134;2023-08-07T12:02:23;1.53;;;1.43;;
5813;SDS011;2933;52.302;8.134;2023-08-07T12:07:25;4.73;;;2.03;;
5813;SDS011;2933;52.302;8.134;2023-08-07T12:12:27;2.20;;;1.47;;
5813;SDS011;2933;52.302;8.134;2023-08-07T12:17:31;5.03;;;1.60;;
5813;SDS011;2933;52.302;8.134;2023-08-07T12:22:33;3.03;;;1.60;;
5813;SDS011;2933;52.302;8.134;2023-08-07T12:27:36;10.70;;;1.87;;
5813;SDS011;2933;52.302;8.134;2023-08-07T12:32:39;3.60;;;1.80;;
5813;SDS011;2933;52.302;8.134;2023-08-07T12:37:41;8.67;;;2.20;;
5813;SDS011;2933;52.302;8.134;2023-08-07T12:42:42;3.43;;;1.57;;
5813;SDS011;2933;52.302;8.134;2023-08-07T12:47:45;2.30;;;1.43;;
5813;SDS011;2933;52.302;8.134;2023-08-07T12:52:47;1.20;;;1.10;;
5813;SDS011;2933;52.302;8.134;2023-08-07T12:57:48;4.90;;;1.60;;
5813;SDS011;2933;52.302;8.134;2023-08-07T13:02:51;2.77;;;1.17;;
5813;SDS011;2933;52.302;8.134;2023-08-07T13:07:53;9.63;;;1.33;;
5813;SDS011;2933;52.302;8.134;2023-08-07T13:12:58;6.00;;;1.77;;
5813;SDS011;2933;52.302;8.134;2023-08-07T13:18:02;1.77;;;1.57;;
5813;SDS011;2933;52.302;8.134;2023-08-07T13:23:04;6.17;;;1.60;;
5813;SDS011;2933;52.302;8.134;2023-08-07T13:28:06;2.27;;;1.33;;
5813;SDS011;2933;52.302;8.134;2023-08-07T13:33:09;4.00;;;1.47;;
5813;SDS011;2933;52.302;8.134;2023-08-07T13:38:10;3.13;;;1.30;;
5813;SDS011;2933;52.302;8.134;2023-08-07T13:43:13;1.53;;;1.10;;
5813;SDS011;2933;52.302;8.134;2023-08-07T13:48:16;2.50;;;1.10;;
5813;SDS011;2933;52.302;8.134;2023-08-07T13:53:17;1.83;;;1.10;;
5813;SDS011;2933;52.302;8.134;2023-08-07T13:58:19;1.73;;;1.30;;
5813;SDS011;2933;52.302;8.134;2023-08-07T14:03:22;3.53;;;1.00;;
5813;SDS011;2933;52.302;8.134;2023-08-07T14:08:24;4.73;;;1.10;;
5813;SDS011;2933;52.302;8.134;2023-08-07T14:13:25;2.50;;;1.37;;
5813;SDS011;2933;52.302;8.134;2023-08-07T14:18:28;1.80;;;1.50;;
5813;SDS011;2933;52.302;8.134;2023-08-07T14:23:30;2.97;;;1.00;;
5813;SDS011;2933;52.302;8.134;2023-08-07T14:28:31;1.50;;;1.40;;
5813;SDS011;2933;52.302;8.134;2023-08-07T14:33:34;1.83;;;1.20;;
5813;SDS011;2933;52.302;8.134;2023-08-07T14:38:36;1.33;;;1.10;;
5813;SDS011;2933;52.302;8.134;2023-08-07T14:43:38;1.27;;;1.17;;
5813;SDS011;2933;52.302;8.134;2023-08-07T14:48:41;1.80;;;1.47;;
5813;SDS011;2933;52.302;8.134;2023-08-07T14:53:42;5.70;;;1.60;;
5813;SDS011;2933;52.302;8.134;2023-08-07T14:58:44;2.77;;;1.47;;
5813;SDS011;2933;52.302;8.134;2023-08-07T15:03:46;2.83;;;1.80;;
5813;SDS011;2933;52.302;8.134;2023-08-07T15:08:48;2.50;;;1.33;;
5813;SDS011;2933;52.302;8.134;2023-08-07T15:13:50;2.50;;;1.40;;
5813;SDS011;2933;52.302;8.134;2023-08-07T15:18:53;3.90;;;1.47;;
5813;SDS011;2933;52.302;8.134;2023-08-07T15:23:54;2.60;;;1.43;;
5813;SDS011;2933;52.302;8.134;2023-08-07T15:28:56;3.83;;;1.77;;
5813;SDS011;2933;52.302;8.134;2023-08-07T15:33:59;4.83;;;2.00;;
5813;SDS011;2933;52.302;8.134;2023-08-07T15:39:01;7.00;;;2.10;;
5813;SDS011;2933;52.302;8.134;2023-08-07T15:44:03;7.73;;;2.00;;
5813;SDS011;2933;52.302;8.134;2023-08-07T15:49:06;6.80;;;1.93;;
5813;SDS011;2933;52.302;8.134;2023-08-07T15:54:07;2.80;;;1.70;;
5813;SDS011;2933;52.302;8.134;2023-08-07T15:59:09;3.37;;;1.87;;
5813;SDS011;2933;52.302;8.134;2023-08-07T16:04:12;1.20;;;1.20;;
5813;SDS011;2933;52.302;8.134;2023-08-07T16:09:13;4.20;;;1.60;;
5813;SDS011;2933;52.302;8.134;2023-08-07T16:14:15;4.53;;;1.80;;
5813;SDS011;2933;52.302;8.134;2023-08-07T16:19:19;7.40;;;1.67;;
5813;SDS011;2933;52.302;8.134;2023-08-07T16:24:20;4.30;;;1.60;;
5813;SDS011;2933;52.302;8.134;2023-08-07T16:29:22;2.63;;;1.70;;
5813;SDS011;2933;52.302;8.134;2023-08-07T16:34:24;1.40;;;1.30;;
5813;SDS011;2933;52.302;8.134;2023-08-07T16:39:26;1.50;;;1.40;;
5813;SDS011;2933;52.302;8.134;2023-08-07T16:44:28;13.70;;;1.60;;
5813;SDS011;2933;52.302;8.134;2023-08-07T16:49:31;5.80;;;1.87;;
5813;SDS011;2933;52.302;8.134;2023-08-07T16:54:32;2.30;;;1.50;;
5813;SDS011;2933;52.302;8.134;2023-08-07T16:59:35;2.87;;;1.93;;
5813;SDS011;2933;52.302;8.134;2023-08-07T17:04:38;2.70;;;1.50;;
5813;SDS011;2933;52.302;8.134;2023-08-07T17:09:39;3.50;;;1.77;;
5813;SDS011;2933;52.302;8.134;2023-08-07T17:14:41;2.53;;;1.87;;
5813;SDS011;2933;52.302;8.134;2023-08-07T17:19:44;7.20;;;1.70;;
5813;SDS011;2933;52.302;8.134;2023-08-07T17:24:45;2.50;;;1.70;;
5813;SDS011;2933;52.302;8.134;2023-08-07T17:29:47;2.80;;;1.80;;
5813;SDS011;2933;52.302;8.134;2023-08-07T17:34:50;3.73;;;1.60;;
5813;SDS011;2933;52.302;8.134;2023-08-07T17:39:51;3.13;;;1.53;;
5813;SDS011;2933;52.302;8.134;2023-08-07T17:44:53;2.70;;;1.80;;
5813;SDS011;2933;52.302;8.134;2023-08-07T17:49:57;6.50;;;1.60;;
5813;SDS011;2933;52.302;8.134;2023-08-07T17:54:59;3.37;;;2.13;;
5813;SDS011;2933;52.302;8.134;2023-08-07T18:00:01;1.80;;;1.70;;
5813;SDS011;2933;52.302;8.134;2023-08-07T18:05:04;5.80;;;2.00;;
5813;SDS011;2933;52.302;8.134;2023-08-07T18:10:07;4.10;;;1.60;;
5813;SDS011;2933;52.302;8.134;2023-08-07T18:15:09;3.50;;;2.03;;
5813;SDS011;2933;52.302;8.134;2023-08-07T18:20:12;2.93;;;1.73;;
5813;SDS011;2933;52.302;8.134;2023-08-07T18:25:14;4.83;;;2.07;;
5813;SDS011;2933;52.302;8.134;2023-08-07T18:30:15;2.40;;;1.60;;
5813;SDS011;2933;52.302;8.134;2023-08-07T18:35:20;2.80;;;1.37;;
5813;SDS011;2933;52.302;8.134;2023-08-07T18:40:22;1.37;;;1.17;;
5813;SDS011;2933;52.302;8.134;2023-08-07T18:45:24;2.97;;;1.43;;
5813;SDS011;2933;52.302;8.134;2023-08-07T18:50:27;2.50;;;1.50;;
5813;SDS011;2933;52.302;8.134;2023-08-07T18:55:28;2.10;;;1.37;;
5813;SDS011;2933;52.302;8.134;2023-08-07T19:00:30;3.90;;;1.47;;
5813;SDS011;2933;52.302;8.134;2023-08-07T19:05:33;4.57;;;2.00;;
5813;SDS011;2933;52.302;8.134;2023-08-07T19:10:34;1.47;;;1.37;;
5813;SDS011;2933;52.302;8.134;2023-08-07T19:15:36;5.93;;;1.63;;
5813;SDS011;2933;52.302;8.134;2023-08-07T19:20:39;2.40;;;1.40;;
5813;SDS011;2933;52.302;8.134;2023-08-07T19:25:42;5.27;;;1.23;;
5813;SDS011;2933;52.302;8.134;2023-08-07T19:30:43;2.80;;;1.30;;
5813;SDS011;2933;52.302;8.134;2023-08-07T19:35:46;3.70;;;1.40;;
5813;SDS011;2933;52.302;8.134;2023-08-07T19:40:48;1.20;;;1.10;;
5813;SDS011;2933;52.302;8.134;2023-08-07T19:45:50;6.07;;;1.43;;
5813;SDS011;2933;52.302;8.134;2023-08-07T19:50:55;1.37;;;1.07;;
5813;SDS011;2933;52.302;8.134;2023-08-07T19:55:56;2.27;;;1.50;;
5813;SDS011;2933;52.302;8.134;2023-08-07T20:00:58;1.27;;;1.20;;
5813;SDS011;2933;52.302;8.134;2023-08-07T20:06:01;2.50;;;1.43;;
5813;SDS011;2933;52.302;8.134;2023-08-07T20:11:02;1.30;;;1.00;;
5813;SDS011;2933;52.302;8.134;2023-08-07T20:16:05;4.60;;;1.40;;
5813;SDS011;2933;52.302;8.134;2023-08-07T20:21:08;1.17;;;1.17;;
5813;SDS011;2933;52.302;8.134;2023-08-07T20:26:09;8.47;;;1.30;;
5813;SDS011;2933;52.302;8.134;2023-08-07T20:31:11;2.13;;;1.70;;
5813;SDS011;2933;52.302;8.134;2023-08-07T20:36:14;2.93;;;1.30;;
5813;SDS011;2933;52.302;8.134;2023-08-07T20:41:15;2.63;;;1.20;;
5813;SDS011;2933;52.302;8.134;2023-08-07T20:46:17;1.20;;;1.03;;
5813;SDS011;2933;52.302;8.134;2023-08-07T20:51:20;3.63;;;1.20;;
5813;SDS011;2933;52.302;8.134;2023-08-07T20:56:22;5.07;;;1.40;;
5813;SDS011;2933;52.302;8.134;2023-08-07T21:01:24;2.20;;;1.30;;
5813;SDS011;2933;52.302;8.134;2023-08-07T21:06:27;7.23;;;3.20;;
5813;SDS011;2933;52.302;8.134;2023-08-07T21:11:28;2.90;;;1.40;;
5813;SDS011;2933;52.302;8.134;2023-08-07T21:16:30;2.97;;;1.60;;
5813;SDS011;2933;52.302;8.134;2023-08-07T21:21:33;2.20;;;1.30;;
5813;SDS011;2933;52.302;8.134;2023-08-07T21:26:34;6.47;;;1.60;;
5813;SDS011;2933;52.302;8.134;2023-08-07T21:31:36;1.40;;;1.30;;
5813;SDS011;2933;52.302;8.134;2023-08-07T21:36:39;2.37;;;1.63;;
5813;SDS011;2933;52.302;8.134;2023-08-07T21:41:40;3.97;;;1.60;;
5813;SDS011;2933;52.302;8.134;2023-08-07T21:46:42;7.60;;;1.30;;
5813;SDS011;2933;52.302;8.134;2023-08-07T21:51:45;2.97;;;1.93;;
5813;SDS011;2933;52.302;8.134;2023-08-07T21:56:46;1.63;;;1.53;;
5813;SDS011;2933;52.302;8.134;2023-08-07T22:01:48;6.17;;;1.37;;
5813;SDS011;2933;52.302;8.134;2023-08-07T22:06:51;2.00;;;1.80;;
5813;SDS011;2933;52.302;8.134;2023-08-07T22:11:52;2.30;;;1.37;;
5813;SDS011;2933;52.302;8.134;2023-08-07T22:16:54;1.70;;;1.30;;
5813;SDS011;2933;52.302;8.134;2023-08-07T22:21:57;1.60;;;1.40;;
5813;SDS011;2933;52.302;8.134;2023-08-07T22:26:59;3.90;;;1.70;;
5813;SDS011;2933;52.302;8.134;2023-08-07T22:32:00;3.70;;;1.53;;
5813;SDS011;2933;52.302;8.134;2023-08-07T22:37:03;2.40;;;1.80;;
5813;SDS011;2933;52.302;8.134;2023-08-07T22:42:05;2.67;;;1.73;;
5813;SDS011;2933;52.302;8.134;2023-08-07T22:47:06;1.90;;;1.80;;
5813;SDS011;2933;52.302;8.134;2023-08-07T22:52:09;1.63;;;1.53;;
5813;SDS011;2933;52.302;8.134;2023-08-07T22:57:11;7.13;;;1.80;;
5813;SDS011;2933;52.302;8.134;2023-08-07T23:02:12;3.30;;;1.90;;
5813;SDS011;2933;52.302;8.134;2023-08-07T23:07:15;4.60;;;2.10;;
5813;SDS011;2933;52.302;8.134;2023-08-07T23:12:17;3.37;;;2.23;;
5813;SDS011;2933;52.302;8.134;2023-08-07T23:17:18;2.10;;;2.00;;
5813;SDS011;2933;52.302;8.134;2023-08-07T23:22:21;7.00;;;1.90;;
5813;SDS011;2933;52.302;8.134;2023-08-07T23:27:23;2.23;;;1.70;;
5813;SDS011;2933;52.302;8.134;2023-08-07T23:32:24;5.03;;;2.10;;
5813;SDS011;2933;52.302;8.134;2023-08-07T23:37:27;2.47;;;2.20;;
5813;SDS011;2933;52.302;8.134;2023-08-07T23:42:29;2.70;;;2.20;;
5813;SDS011;2933;52.302;8.134;2023-08-07T23:47:30;2.30;;;2.10;;
5813;SDS011;2933;52.302;8.134;2023-08-07T23:52:33;3.17;;;2.40;;
5813;SDS011;2933;52.302;8.134;2023-08-07T23:57:35;2.53;;;2.33;;
